createdAt,value
2019-04-10T00:00:44.157Z,4.00
2019-04-10T00:01:42.832Z,4.00
2019-04-10T00:02:43.885Z,4.00
2019-04-10T00:03:43.974Z,4.00
2019-04-10T00:04:43.261Z,4.00
2019-04-10T00:05:42.878Z,4.00
2019-04-10T00:06:42.891Z,4.00
2019-04-10T00:07:43.818Z,4.00
2019-04-10T00:08:42.923Z,4.00
2019-04-10T00:09:43.391Z,4.00
2019-04-10T00:10:43.785Z,4.00
2019-04-10T00:11:43.245Z,4.00
2019-04-10T00:12:42.983Z,4.00
2019-04-10T00:13:43.018Z,4.00
2019-04-10T00:14:43.014Z,4.00
2019-04-10T00:15:43.029Z,4.00
2019-04-10T00:16:43.062Z,4.00
2019-04-10T00:17:43.071Z,4.00
2019-04-10T00:18:44.235Z,4.00
2019-04-10T00:19:43.676Z,4.00
2019-04-10T00:20:43.105Z,4.00
2019-04-10T00:21:43.129Z,4.00
2019-04-10T00:22:44.204Z,4.00
2019-04-10T00:23:43.672Z,4.00
2019-04-10T00:24:44.227Z,4.00
2019-04-10T00:25:43.467Z,4.00
2019-04-10T00:26:43.198Z,4.00
2019-04-10T00:27:43.215Z,4.00
2019-04-10T00:28:43.588Z,4.00
2019-04-10T00:29:43.250Z,4.00
2019-04-10T00:30:43.256Z,4.00
2019-04-10T00:31:44.444Z,4.00
2019-04-10T00:32:43.918Z,4.00
2019-04-10T00:33:43.311Z,4.00
2019-04-10T00:34:43.317Z,4.00
2019-04-10T00:35:43.772Z,4.00
2019-04-10T00:36:43.587Z,4.00
2019-04-10T00:37:43.369Z,4.00
2019-04-10T00:38:44.203Z,4.00
2019-04-10T00:39:44.451Z,4.00
2019-04-10T00:40:43.739Z,4.00
2019-04-10T00:41:44.211Z,4.00
2019-04-10T00:42:43.439Z,4.00
2019-04-10T00:43:43.567Z,4.00
2019-04-10T00:44:43.843Z,4.00
2019-04-10T00:45:44.012Z,4.00
2019-04-10T00:46:43.498Z,4.00
2019-04-10T00:47:43.517Z,4.00
2019-04-10T00:48:43.940Z,4.00
2019-04-10T00:49:44.089Z,4.00
2019-04-10T00:50:44.609Z,4.00
2019-04-10T00:51:43.663Z,4.00
2019-04-10T00:52:44.152Z,4.00
2019-04-10T00:53:43.606Z,4.00
2019-04-10T00:54:43.621Z,4.00
2019-04-10T00:55:44.032Z,4.00
2019-04-10T00:56:43.655Z,4.00
2019-04-10T00:57:43.738Z,4.00
2019-04-10T00:58:43.778Z,4.00
2019-04-10T00:59:44.177Z,4.00
2019-04-10T01:00:43.716Z,4.00
2019-04-10T01:01:43.782Z,4.00
2019-04-10T01:02:43.742Z,4.00
2019-04-10T01:03:44.040Z,4.00
2019-04-10T01:04:44.662Z,4.00
2019-04-10T01:05:43.817Z,4.00
2019-04-10T01:06:44.220Z,4.00
2019-04-10T01:07:44.710Z,4.00
2019-04-10T01:08:44.763Z,4.00
2019-04-10T01:09:43.844Z,4.00
2019-04-10T01:10:44.269Z,4.00
2019-04-10T01:11:43.873Z,4.00
2019-04-10T01:12:44.087Z,4.00
2019-04-10T01:13:43.911Z,4.00
2019-04-10T01:14:43.923Z,4.00
2019-04-10T01:15:44.763Z,4.00
2019-04-10T01:16:44.024Z,4.00
2019-04-10T01:17:43.965Z,4.00
2019-04-10T01:18:43.983Z,4.00
2019-04-10T01:19:44.038Z,4.00
2019-04-10T01:20:44.012Z,4.00
2019-04-10T01:21:44.300Z,4.00
2019-04-10T01:22:44.043Z,4.00
2019-04-10T01:23:44.920Z,4.00
2019-04-10T01:24:44.066Z,4.00
2019-04-10T01:25:44.081Z,4.00
2019-04-10T01:26:44.095Z,4.00
2019-04-10T01:27:44.523Z,4.00
2019-04-10T01:28:45.092Z,4.00
2019-04-10T01:29:44.140Z,4.00
2019-04-10T01:30:44.156Z,4.00
2019-04-10T01:31:44.171Z,4.00
2019-04-10T01:32:44.194Z,4.00
2019-04-10T01:33:45.860Z,4.00
2019-04-10T01:34:44.216Z,4.00
2019-04-10T01:35:44.612Z,4.00
2019-04-10T01:36:44.252Z,4.00
2019-04-10T01:37:49.480Z,4.00
2019-04-10T01:38:44.275Z,4.00
2019-04-10T01:39:44.405Z,4.00
2019-04-10T01:40:45.504Z,4.00
2019-04-10T01:41:44.323Z,4.00
2019-04-10T01:42:44.512Z,4.00
2019-04-10T01:43:44.354Z,4.00
2019-04-10T01:44:44.861Z,4.00
2019-04-10T01:45:44.377Z,4.00
2019-04-10T01:46:44.470Z,4.00
2019-04-10T01:47:45.509Z,4.00
2019-04-10T01:48:44.421Z,4.00
2019-04-10T01:49:44.435Z,4.00
2019-04-10T01:50:44.513Z,4.00
2019-04-10T01:51:45.549Z,4.00
2019-04-10T01:52:44.931Z,4.00
2019-04-10T01:53:44.493Z,4.00
2019-04-10T01:54:45.618Z,4.00
2019-04-10T01:55:44.530Z,4.00
2019-04-10T01:56:44.539Z,4.00
2019-04-10T01:57:44.558Z,4.00
2019-04-10T01:58:45.463Z,4.00
2019-04-10T01:59:44.586Z,4.00
2019-04-10T02:00:44.597Z,4.00
2019-04-10T02:01:44.984Z,4.00
2019-04-10T02:02:45.445Z,4.00
2019-04-10T02:03:44.643Z,4.00
2019-04-10T02:04:44.844Z,4.00
2019-04-10T02:05:45.019Z,4.00
2019-04-10T02:06:45.383Z,4.00
2019-04-10T02:07:58.661Z,4.00
2019-04-10T02:08:45.720Z,4.00
2019-04-10T02:09:45.867Z,4.00
2019-04-10T02:10:44.742Z,4.00
2019-04-10T02:11:44.759Z,4.00
2019-04-10T02:12:45.121Z,4.00
2019-04-10T02:13:44.788Z,4.00
2019-04-10T02:14:44.799Z,4.00
2019-04-10T02:15:44.817Z,4.00
2019-04-10T02:16:45.261Z,4.00
2019-04-10T02:17:44.846Z,4.00
2019-04-10T02:18:45.721Z,4.00
2019-04-10T02:19:44.873Z,4.00
2019-04-10T02:20:45.200Z,4.00
2019-04-10T02:21:44.903Z,4.00
2019-04-10T02:22:45.857Z,4.00
2019-04-10T02:23:44.932Z,4.00
2019-04-10T02:24:44.945Z,4.00
2019-04-10T02:25:45.179Z,4.00
2019-04-10T02:26:45.646Z,4.00
2019-04-10T02:27:44.989Z,4.00
2019-04-10T02:28:45.025Z,4.00
2019-04-10T02:29:45.893Z,4.00
2019-04-10T02:30:46.006Z,4.00
2019-04-10T02:31:46.298Z,4.00
2019-04-10T02:32:47.903Z,4.00
2019-04-10T02:33:45.085Z,4.00
2019-04-10T02:34:46.794Z,4.00
2019-04-10T02:35:45.555Z,4.00
2019-04-10T02:36:46.538Z,4.00
2019-04-10T02:37:45.137Z,4.00
2019-04-10T02:38:59.389Z,4.00
2019-04-10T02:39:48.501Z,4.00
2019-04-10T02:40:45.627Z,4.00
2019-04-10T02:41:45.843Z,4.00
2019-04-10T02:42:45.283Z,4.00
2019-04-10T02:43:45.480Z,4.00
2019-04-10T02:44:45.891Z,4.00
2019-04-10T02:45:45.253Z,4.00
2019-04-10T02:46:45.264Z,4.00
2019-04-10T02:47:45.276Z,4.00
2019-04-10T02:48:45.531Z,4.00
2019-04-10T02:49:46.887Z,4.00
2019-04-10T02:50:45.322Z,4.00
2019-04-10T02:51:45.594Z,4.00
2019-04-10T02:52:45.916Z,4.00
2019-04-10T02:53:46.023Z,4.00
2019-04-10T02:54:46.034Z,4.00
2019-04-10T02:55:45.399Z,4.00
2019-04-10T02:56:46.353Z,4.00
2019-04-10T02:57:45.920Z,4.00
2019-04-10T02:58:47.068Z,4.00
2019-04-10T02:59:46.974Z,4.00
2019-04-10T03:00:46.383Z,4.00
2019-04-10T03:01:45.478Z,4.00
2019-04-10T03:02:45.493Z,4.00
2019-04-10T03:03:46.501Z,4.00
2019-04-10T03:04:45.523Z,4.00
2019-04-10T03:05:46.672Z,4.00
2019-04-10T03:06:46.984Z,4.00
2019-04-10T03:07:46.366Z,4.00
2019-04-10T03:09:04.822Z,4.00
2019-04-10T03:10:00.421Z,4.00
2019-04-10T03:10:50.623Z,4.00
2019-04-10T03:11:45.894Z,4.00
2019-04-10T03:12:46.413Z,4.00
2019-04-10T03:13:47.174Z,4.00
2019-04-10T03:14:47.481Z,4.00
2019-04-10T03:15:47.499Z,4.00
2019-04-10T03:16:45.856Z,4.00
2019-04-10T03:17:45.707Z,4.00
2019-04-10T03:18:45.737Z,4.00
2019-04-10T03:19:45.733Z,4.00
2019-04-10T03:20:46.721Z,4.00
2019-04-10T03:21:45.766Z,4.00
2019-04-10T03:22:45.775Z,4.00
2019-04-10T03:23:45.800Z,4.00
2019-04-10T03:24:46.468Z,4.00
2019-04-10T03:25:45.826Z,4.00
2019-04-10T03:26:45.867Z,4.00
2019-04-10T03:27:46.809Z,4.00
2019-04-10T03:28:45.861Z,4.00
2019-04-10T03:29:46.419Z,4.00
2019-04-10T03:30:46.665Z,4.00
2019-04-10T03:31:47.782Z,4.00
2019-04-10T03:32:51.690Z,4.00
2019-04-10T03:33:49.388Z,4.00
2019-04-10T03:34:48.261Z,4.00
2019-04-10T03:35:47.855Z,4.00
2019-04-10T03:36:45.977Z,4.00
2019-04-10T03:37:46.681Z,4.00
2019-04-10T03:38:55.509Z,4.00
2019-04-10T03:39:46.773Z,4.00
2019-04-10T03:40:46.031Z,4.00
2019-04-10T03:41:46.057Z,4.00
2019-04-10T03:42:46.061Z,4.00
2019-04-10T03:43:46.073Z,4.00
2019-04-10T03:44:47.115Z,4.00
2019-04-10T03:45:46.689Z,4.00
2019-04-10T03:46:46.921Z,4.00
2019-04-10T03:47:47.332Z,4.00
2019-04-10T03:48:47.275Z,4.00
2019-04-10T03:49:46.337Z,4.00
2019-04-10T03:50:46.172Z,4.00
2019-04-10T03:51:47.103Z,4.00
2019-04-10T03:52:46.418Z,4.00
2019-04-10T03:53:46.635Z,4.00
2019-04-10T03:54:46.228Z,4.00
2019-04-10T03:55:47.308Z,4.00
2019-04-10T03:56:46.256Z,4.00
2019-04-10T03:57:46.928Z,4.00
2019-04-10T03:58:47.454Z,4.00
2019-04-10T03:59:46.298Z,4.00
2019-04-10T04:00:46.720Z,4.00
2019-04-10T04:01:47.224Z,4.00
2019-04-10T04:02:46.477Z,4.00
2019-04-10T04:03:46.357Z,4.00
2019-04-10T04:04:46.368Z,0.00
2019-04-10T04:05:46.752Z,4.00
2019-04-10T04:06:46.397Z,4.00
2019-04-10T04:07:46.557Z,4.00
2019-04-10T04:08:46.428Z,4.00
2019-04-10T04:09:46.442Z,4.00
2019-04-10T04:10:46.453Z,4.00
2019-04-10T04:11:46.477Z,4.00
2019-04-10T04:12:46.740Z,4.00
2019-04-10T04:13:46.505Z,8.00
2019-04-10T04:14:46.511Z,8.00
2019-04-10T04:15:46.524Z,4.00
2019-04-10T04:16:47.070Z,4.00
2019-04-10T04:17:46.576Z,8.00
2019-04-10T04:18:46.567Z,4.00
2019-04-10T04:19:46.583Z,8.00
2019-04-10T04:20:47.550Z,8.00
2019-04-10T04:21:46.608Z,8.00
2019-04-10T04:22:47.562Z,8.00
2019-04-10T04:23:46.865Z,12.00
2019-04-10T04:24:46.651Z,12.00
2019-04-10T04:25:46.667Z,12.00
2019-04-10T04:26:46.678Z,12.00
2019-04-10T04:27:46.690Z,12.00
2019-04-10T04:28:46.704Z,16.00
2019-04-10T04:29:47.523Z,20.00
2019-04-10T04:30:46.730Z,24.00
2019-04-10T04:31:46.748Z,28.00
2019-04-10T04:32:46.762Z,32.00
2019-04-10T04:33:46.976Z,36.00
2019-04-10T04:34:47.458Z,44.00
2019-04-10T04:35:47.412Z,44.00
2019-04-10T04:36:48.921Z,52.00
2019-04-10T04:37:46.832Z,60.00
2019-04-10T04:38:46.856Z,68.00
2019-04-10T04:39:47.525Z,76.00
2019-04-10T04:40:46.870Z,84.00
2019-04-10T04:41:47.836Z,92.00
2019-04-10T04:42:47.172Z,104.00
2019-04-10T04:43:47.655Z,116.00
2019-04-10T04:44:47.770Z,128.00
2019-04-10T04:45:46.944Z,140.00
2019-04-10T04:46:46.954Z,148.00
2019-04-10T04:47:48.091Z,164.00
2019-04-10T04:48:47.437Z,176.00
2019-04-10T04:49:47.003Z,196.00
2019-04-10T04:50:47.009Z,212.00
2019-04-10T04:51:48.032Z,228.00
2019-04-10T04:52:47.037Z,244.00
2019-04-10T04:53:47.048Z,260.00
2019-04-10T04:54:47.744Z,280.00
2019-04-10T04:55:47.102Z,300.00
2019-04-10T04:56:47.098Z,320.00
2019-04-10T04:57:47.205Z,336.00
2019-04-10T04:58:47.591Z,356.00
2019-04-10T04:59:48.266Z,380.00
2019-04-10T05:00:48.291Z,400.00
2019-04-10T05:01:47.159Z,424.00
2019-04-10T05:02:47.169Z,444.00
2019-04-10T05:03:47.184Z,468.00
2019-04-10T05:04:47.204Z,492.00
2019-04-10T05:05:47.781Z,516.00
2019-04-10T05:06:47.995Z,544.00
2019-04-10T05:07:57.400Z,568.00
2019-04-10T05:08:48.493Z,592.00
2019-04-10T05:09:48.221Z,620.00
2019-04-10T05:10:47.481Z,644.00
2019-04-10T05:11:47.295Z,668.00
2019-04-10T05:12:47.308Z,700.00
2019-04-10T05:13:47.322Z,728.00
2019-04-10T05:14:48.162Z,760.00
2019-04-10T05:15:47.349Z,784.00
2019-04-10T05:16:47.800Z,816.00
2019-04-10T05:17:47.377Z,844.00
2019-04-10T05:18:47.726Z,868.00
2019-04-10T05:19:47.404Z,896.00
2019-04-10T05:20:50.500Z,932.00
2019-04-10T05:21:47.699Z,976.00
2019-04-10T05:22:47.446Z,984.00
2019-04-10T05:23:47.455Z,996.00
2019-04-10T05:24:47.468Z,1000.00
2019-04-10T05:25:47.688Z,1024.00
2019-04-10T05:26:47.496Z,1048.00
2019-04-10T05:27:47.512Z,1072.00
2019-04-10T05:28:48.431Z,1104.00
2019-04-10T05:29:47.542Z,1132.00
2019-04-10T05:30:47.551Z,1152.00
2019-04-10T05:31:47.569Z,1180.00
2019-04-10T05:32:47.581Z,1208.00
2019-04-10T05:33:47.605Z,1232.00
2019-04-10T05:34:47.611Z,1256.00
2019-04-10T05:35:48.699Z,1272.00
2019-04-10T05:36:47.636Z,1304.00
2019-04-10T05:37:47.834Z,1332.00
2019-04-10T05:38:48.234Z,1356.00
2019-04-10T05:39:50.886Z,1380.00
2019-04-10T05:40:48.531Z,1400.00
2019-04-10T05:41:48.459Z,1424.00
2019-04-10T05:42:47.716Z,1436.00
2019-04-10T05:43:48.902Z,1460.00
2019-04-10T05:44:47.895Z,1476.00
2019-04-10T05:45:48.626Z,1500.00
2019-04-10T05:46:47.774Z,1524.00
2019-04-10T05:47:47.790Z,1544.00
2019-04-10T05:48:49.043Z,1568.00
2019-04-10T05:49:47.813Z,1580.00
2019-04-10T05:50:56.447Z,1600.00
2019-04-10T05:51:47.964Z,1620.00
2019-04-10T05:52:47.856Z,1644.00
2019-04-10T05:53:49.889Z,1664.00
2019-04-10T05:54:47.883Z,1692.00
2019-04-10T05:55:47.906Z,1720.00
2019-04-10T05:56:47.910Z,1748.00
2019-04-10T05:57:48.957Z,1768.00
2019-04-10T05:58:48.992Z,1780.00
2019-04-10T05:59:48.057Z,1796.00
2019-04-10T06:00:47.968Z,1828.00
2019-04-10T06:01:48.550Z,1856.00
2019-04-10T06:02:48.208Z,1864.00
2019-04-10T06:03:49.087Z,1908.00
2019-04-10T06:04:48.026Z,1940.00
2019-04-10T06:05:48.660Z,1956.00
2019-04-10T06:06:48.501Z,1988.00
2019-04-10T06:07:48.062Z,2016.00
2019-04-10T06:08:49.060Z,2032.00
2019-04-10T06:09:55.897Z,2052.00
2019-04-10T06:10:48.104Z,2068.00
2019-04-10T06:11:49.007Z,2092.00
2019-04-10T06:12:48.767Z,2108.00
2019-04-10T06:13:48.575Z,2116.00
2019-04-10T06:14:48.538Z,2136.00
2019-04-10T06:15:48.171Z,2164.00
2019-04-10T06:16:48.952Z,2176.00
2019-04-10T06:17:49.027Z,2200.00
2019-04-10T06:18:48.241Z,2228.00
2019-04-10T06:19:48.956Z,2256.00
2019-04-10T06:20:49.320Z,2280.00
2019-04-10T06:21:48.256Z,2308.00
2019-04-10T06:22:48.269Z,2320.00
2019-04-10T06:23:48.284Z,2344.00
2019-04-10T06:24:48.799Z,2376.00
2019-04-10T06:25:48.310Z,2400.00
2019-04-10T06:26:48.325Z,2432.00
2019-04-10T06:27:48.447Z,2448.00
2019-04-10T06:28:48.584Z,2464.00
2019-04-10T06:29:48.367Z,2476.00
2019-04-10T06:30:48.384Z,2492.00
2019-04-10T06:31:49.328Z,2504.00
2019-04-10T06:32:48.460Z,2516.00
2019-04-10T06:33:48.631Z,2540.00
2019-04-10T06:34:48.439Z,2564.00
2019-04-10T06:35:48.977Z,2592.00
2019-04-10T06:36:49.435Z,2604.00
2019-04-10T06:37:48.477Z,2636.00
2019-04-10T06:38:48.493Z,2656.00
2019-04-10T06:39:49.001Z,2680.00
2019-04-10T06:40:48.526Z,2700.00
2019-04-10T06:41:48.834Z,2724.00
2019-04-10T06:42:53.093Z,2736.00
2019-04-10T06:43:49.581Z,2768.00
2019-04-10T06:44:48.577Z,2780.00
2019-04-10T06:45:48.591Z,2808.00
2019-04-10T06:46:48.682Z,2820.00
2019-04-10T06:47:48.741Z,2828.00
2019-04-10T06:48:48.631Z,2828.00
2019-04-10T06:49:48.652Z,2848.00
2019-04-10T06:50:48.661Z,2840.00
2019-04-10T06:51:49.418Z,2848.00
2019-04-10T06:52:49.285Z,2844.00
2019-04-10T06:54:00.194Z,2912.00
2019-04-10T06:54:49.023Z,2968.00
2019-04-10T06:55:48.927Z,3016.00
2019-04-10T06:56:48.869Z,3000.00
2019-04-10T06:57:55.866Z,3032.00
2019-04-10T06:58:49.791Z,3044.00
2019-04-10T06:59:48.790Z,3056.00
2019-04-10T07:00:52.177Z,3076.00
2019-04-10T07:01:53.340Z,3088.00
2019-04-10T07:02:48.833Z,3092.00
2019-04-10T07:03:56.566Z,3164.00
2019-04-10T07:04:54.252Z,3100.00
2019-04-10T07:06:02.402Z,3132.00
2019-04-10T07:06:58.019Z,3240.00
2019-04-10T07:07:53.768Z,3168.00
2019-04-10T07:08:50.917Z,3168.00
2019-04-10T07:09:49.597Z,3184.00
2019-04-10T07:10:55.369Z,3196.00
2019-04-10T07:11:54.446Z,3196.00
2019-04-10T07:12:49.029Z,3204.00
2019-04-10T07:13:49.223Z,3232.00
2019-04-10T07:14:50.768Z,3232.00
2019-04-10T07:15:49.780Z,3252.00
2019-04-10T07:16:49.041Z,3264.00
2019-04-10T07:17:49.296Z,3280.00
2019-04-10T07:18:50.462Z,3296.00
2019-04-10T07:19:49.315Z,3316.00
2019-04-10T07:20:50.348Z,3340.00
2019-04-10T07:21:49.216Z,3364.00
2019-04-10T07:22:49.734Z,3396.00
2019-04-10T07:23:49.138Z,3408.00
2019-04-10T07:24:51.753Z,3420.00
2019-04-10T07:25:49.934Z,3456.00
2019-04-10T07:26:50.791Z,3460.00
2019-04-10T07:27:49.196Z,3460.00
2019-04-10T07:28:50.362Z,3428.00
2019-04-10T07:29:52.322Z,3312.00
2019-04-10T07:30:49.236Z,3508.00
2019-04-10T07:31:49.256Z,3572.00
2019-04-10T07:32:49.524Z,3628.00
2019-04-10T07:33:50.765Z,3652.00
2019-04-10T07:34:49.299Z,3652.00
2019-04-10T07:35:49.968Z,3648.00
2019-04-10T07:36:49.761Z,3624.00
2019-04-10T07:37:54.367Z,3636.00
2019-04-10T07:38:49.358Z,3604.00
2019-04-10T07:39:49.371Z,3632.00
2019-04-10T07:40:49.387Z,3628.00
2019-04-10T07:41:49.401Z,3688.00
2019-04-10T07:42:50.407Z,3716.00
2019-04-10T07:43:53.908Z,3704.00
2019-04-10T07:44:49.448Z,3720.00
2019-04-10T07:45:49.465Z,3712.00
2019-04-10T07:46:49.479Z,3700.00
2019-04-10T07:47:49.490Z,3708.00
2019-04-10T07:48:50.253Z,3768.00
2019-04-10T07:49:50.348Z,3784.00
2019-04-10T07:50:49.543Z,3820.00
2019-04-10T07:51:49.550Z,3848.00
2019-04-10T07:52:50.043Z,3900.00
2019-04-10T07:53:49.581Z,3956.00
2019-04-10T07:54:50.384Z,3900.00
2019-04-10T07:56:00.379Z,3916.00
2019-04-10T07:56:49.636Z,3916.00
2019-04-10T07:57:50.677Z,3900.00
2019-04-10T07:58:49.659Z,3916.00
2019-04-10T07:59:49.750Z,3920.00
2019-04-10T08:00:49.857Z,3960.00
2019-04-10T08:01:49.705Z,3968.00
2019-04-10T08:02:49.718Z,3984.00
2019-04-10T08:03:51.376Z,4020.00
2019-04-10T08:04:49.751Z,4088.00
2019-04-10T08:05:50.279Z,4048.00
2019-04-10T08:06:50.220Z,4084.00
2019-04-10T08:07:49.807Z,4128.00
2019-04-10T08:08:49.811Z,4120.00
2019-04-10T08:09:49.865Z,4132.00
2019-04-10T08:10:50.855Z,4172.00
2019-04-10T08:11:50.926Z,4188.00
2019-04-10T08:12:53.196Z,4228.00
2019-04-10T08:13:49.888Z,4248.00
2019-04-10T08:14:49.904Z,4276.00
2019-04-10T08:15:50.115Z,4340.00
2019-04-10T08:16:49.937Z,4392.00
2019-04-10T08:17:51.280Z,4444.00
2019-04-10T08:18:49.966Z,4484.00
2019-04-10T08:19:50.940Z,4584.00
2019-04-10T08:20:50.870Z,4600.00
2019-04-10T08:21:50.011Z,4640.00
2019-04-10T08:22:51.146Z,4712.00
2019-04-10T08:23:51.469Z,4800.00
2019-04-10T08:24:51.180Z,4844.00
2019-04-10T08:25:50.081Z,4932.00
2019-04-10T08:26:50.089Z,5004.00
2019-04-10T08:27:50.180Z,5076.00
2019-04-10T08:28:50.123Z,5096.00
2019-04-10T08:29:50.622Z,5096.00
2019-04-10T08:30:50.490Z,5020.00
2019-04-10T08:31:50.395Z,5208.00
2019-04-10T08:32:57.283Z,4852.00
2019-04-10T08:33:50.451Z,4880.00
2019-04-10T08:34:51.226Z,4904.00
2019-04-10T08:35:50.237Z,4964.00
2019-04-10T08:36:52.834Z,5020.00
2019-04-10T08:37:50.690Z,5008.00
2019-04-10T08:38:50.860Z,5012.00
2019-04-10T08:39:51.465Z,5036.00
2019-04-10T08:40:50.319Z,5064.00
2019-04-10T08:41:50.331Z,5028.00
2019-04-10T08:42:51.332Z,5144.00
2019-04-10T08:43:50.372Z,5132.00
2019-04-10T08:44:50.383Z,5152.00
2019-04-10T08:45:52.248Z,5140.00
2019-04-10T08:46:50.490Z,5188.00
2019-04-10T08:47:50.823Z,5192.00
2019-04-10T08:48:50.445Z,5208.00
2019-04-10T08:49:50.461Z,5204.00
2019-04-10T08:50:50.475Z,5176.00
2019-04-10T08:51:50.492Z,5360.00
2019-04-10T08:52:50.513Z,5248.00
2019-04-10T08:53:50.847Z,5244.00
2019-04-10T08:54:51.205Z,5316.00
2019-04-10T08:55:50.560Z,5400.00
2019-04-10T08:56:50.572Z,5492.00
2019-04-10T08:57:50.595Z,5472.00
2019-04-10T08:58:51.637Z,5496.00
2019-04-10T08:59:50.653Z,5488.00
2019-04-10T09:00:52.356Z,5528.00
2019-04-10T09:01:50.666Z,5476.00
2019-04-10T09:02:50.677Z,5552.00
2019-04-10T09:03:51.026Z,5540.00
2019-04-10T09:04:50.703Z,5560.00
2019-04-10T09:05:51.077Z,5576.00
2019-04-10T09:06:51.543Z,5560.00
2019-04-10T09:07:50.773Z,5564.00
2019-04-10T09:08:50.981Z,5576.00
2019-04-10T09:09:50.786Z,5556.00
2019-04-10T09:10:50.801Z,5556.00
2019-04-10T09:11:51.614Z,5584.00
2019-04-10T09:12:51.635Z,5608.00
2019-04-10T09:13:50.852Z,5608.00
2019-04-10T09:14:51.785Z,5588.00
2019-04-10T09:15:51.015Z,5576.00
2019-04-10T09:16:51.131Z,5608.00
2019-04-10T09:17:51.411Z,5568.00
2019-04-10T09:18:51.575Z,5556.00
2019-04-10T09:19:51.918Z,5528.00
2019-04-10T09:20:51.054Z,5648.00
2019-04-10T09:21:52.039Z,5608.00
2019-04-10T09:23:14.468Z,5636.00
2019-04-10T09:23:53.451Z,5664.00
2019-04-10T09:24:51.037Z,5660.00
2019-04-10T09:25:51.303Z,5652.00
2019-04-10T09:26:51.071Z,5752.00
2019-04-10T09:27:51.769Z,5452.00
2019-04-10T09:28:51.104Z,5456.00
2019-04-10T09:29:52.142Z,5416.00
2019-04-10T09:30:51.372Z,5476.00
2019-04-10T09:31:51.152Z,5484.00
2019-04-10T09:32:51.170Z,5488.00
2019-04-10T09:33:51.533Z,5452.00
2019-04-10T09:34:52.038Z,5452.00
2019-04-10T09:35:51.221Z,5548.00
2019-04-10T09:36:51.445Z,5760.00
2019-04-10T09:37:52.399Z,5504.00
2019-04-10T09:38:51.273Z,5468.00
2019-04-10T09:39:53.219Z,5496.00
2019-04-10T09:40:51.555Z,5440.00
2019-04-10T09:41:52.318Z,5360.00
2019-04-10T09:42:52.162Z,5492.00
2019-04-10T09:43:51.353Z,5468.00
2019-04-10T09:44:51.370Z,5456.00
2019-04-10T09:45:51.529Z,5580.00
2019-04-10T09:46:51.742Z,5452.00
2019-04-10T09:47:52.308Z,5532.00
2019-04-10T09:48:51.991Z,5408.00
2019-04-10T09:49:51.511Z,5412.00
2019-04-10T09:50:52.520Z,5424.00
2019-04-10T09:51:51.488Z,5432.00
2019-04-10T09:52:52.382Z,5488.00
2019-04-10T09:53:51.532Z,5396.00
2019-04-10T09:54:51.542Z,5304.00
2019-04-10T09:55:52.424Z,5320.00
2019-04-10T09:56:52.734Z,5300.00
2019-04-10T09:57:51.821Z,5208.00
2019-04-10T09:58:51.920Z,5324.00
2019-04-10T09:59:52.630Z,5264.00
2019-04-10T10:00:52.223Z,5268.00
2019-04-10T10:01:52.746Z,5268.00
2019-04-10T10:02:52.876Z,5260.00
2019-04-10T10:03:52.713Z,5260.00
2019-04-10T10:04:51.711Z,5240.00
2019-04-10T10:05:51.729Z,5232.00
2019-04-10T10:06:51.746Z,5256.00
2019-04-10T10:07:54.461Z,5284.00
2019-04-10T10:08:52.331Z,5228.00
2019-04-10T10:09:51.804Z,5176.00
2019-04-10T10:10:51.815Z,5112.00
2019-04-10T10:11:51.830Z,5196.00
2019-04-10T10:12:52.679Z,5208.00
2019-04-10T10:13:52.308Z,5220.00
2019-04-10T10:14:52.006Z,5232.00
2019-04-10T10:15:51.907Z,5180.00
2019-04-10T10:16:52.611Z,5228.00
2019-04-10T10:17:52.879Z,5200.00
2019-04-10T10:18:52.033Z,5156.00
2019-04-10T10:19:53.549Z,5120.00
2019-04-10T10:20:52.252Z,5184.00
2019-04-10T10:21:52.554Z,5232.00
2019-04-10T10:22:52.022Z,5132.00
2019-04-10T10:23:52.097Z,5200.00
2019-04-10T10:24:53.025Z,5248.00
2019-04-10T10:25:53.223Z,5248.00
2019-04-10T10:26:52.091Z,5296.00
2019-04-10T10:27:52.106Z,5228.00
2019-04-10T10:28:52.469Z,5132.00
2019-04-10T10:29:53.511Z,5088.00
2019-04-10T10:30:52.159Z,5204.00
2019-04-10T10:31:53.574Z,5180.00
2019-04-10T10:32:53.128Z,5156.00
2019-04-10T10:33:52.266Z,5144.00
2019-04-10T10:34:52.494Z,5084.00
2019-04-10T10:35:52.247Z,5296.00
2019-04-10T10:36:53.292Z,5184.00
2019-04-10T10:37:52.282Z,5248.00
2019-04-10T10:39:03.613Z,5156.00
2019-04-10T10:39:52.844Z,5072.00
2019-04-10T10:40:52.858Z,5056.00
2019-04-10T10:41:52.352Z,4976.00
2019-04-10T10:42:52.366Z,5132.00
2019-04-10T10:43:52.997Z,5488.00
2019-04-10T10:44:52.401Z,5544.00
2019-04-10T10:45:53.382Z,5316.00
2019-04-10T10:46:52.662Z,5236.00
2019-04-10T10:47:52.699Z,5228.00
2019-04-10T10:48:52.472Z,5364.00
2019-04-10T10:49:52.856Z,5572.00
2019-04-10T10:50:53.322Z,5712.00
2019-04-10T10:51:53.309Z,5544.00
2019-04-10T10:52:52.544Z,5456.00
2019-04-10T10:53:52.562Z,5356.00
2019-04-10T10:54:53.496Z,5328.00
2019-04-10T10:55:52.597Z,5328.00
2019-04-10T10:56:52.962Z,5268.00
2019-04-10T10:57:52.632Z,5192.00
2019-04-10T10:58:53.141Z,5244.00
2019-04-10T10:59:53.620Z,5228.00
2019-04-10T11:00:53.701Z,5104.00
2019-04-10T11:01:53.835Z,5244.00
2019-04-10T11:02:53.918Z,5356.00
2019-04-10T11:03:52.736Z,5344.00
2019-04-10T11:04:53.684Z,5204.00
2019-04-10T11:05:52.915Z,5252.00
2019-04-10T11:06:59.198Z,5148.00
2019-04-10T11:07:53.105Z,5180.00
2019-04-10T11:08:53.754Z,5196.00
2019-04-10T11:09:52.985Z,2968.00
2019-04-10T11:10:55.846Z,3008.00
2019-04-10T11:11:53.719Z,4040.00
2019-04-10T11:12:53.639Z,5456.00
2019-04-10T11:13:52.918Z,3668.00
2019-04-10T11:14:53.711Z,5180.00
2019-04-10T11:15:53.154Z,3920.00
2019-04-10T11:16:53.703Z,3912.00
2019-04-10T11:17:53.911Z,3672.00
2019-04-10T11:18:53.104Z,4544.00
2019-04-10T11:19:53.289Z,5524.00
2019-04-10T11:20:58.130Z,5336.00
2019-04-10T11:21:53.056Z,5356.00
2019-04-10T11:22:53.625Z,5520.00
2019-04-10T11:23:53.301Z,5528.00
2019-04-10T11:24:53.341Z,5684.00
2019-04-10T11:25:55.156Z,5732.00
2019-04-10T11:26:54.018Z,5864.00
2019-04-10T11:27:53.955Z,6064.00
2019-04-10T11:28:53.173Z,6380.00
2019-04-10T11:29:53.309Z,6036.00
2019-04-10T11:30:53.607Z,4596.00
2019-04-10T11:31:53.734Z,6736.00
2019-04-10T11:32:54.806Z,6524.00
2019-04-10T11:33:55.933Z,6228.00
2019-04-10T11:34:53.284Z,6128.00
2019-04-10T11:35:53.461Z,6220.00
2019-04-10T11:37:12.928Z,5988.00
2019-04-10T11:37:56.742Z,5800.00
2019-04-10T11:38:55.357Z,5704.00
2019-04-10T11:39:54.530Z,6084.00
2019-04-10T11:40:57.301Z,6568.00
2019-04-10T11:41:55.141Z,6692.00
2019-04-10T11:42:54.220Z,5392.00
2019-04-10T11:43:56.071Z,3784.00
2019-04-10T11:44:54.596Z,5836.00
2019-04-10T11:45:56.162Z,5780.00
2019-04-10T11:46:56.544Z,5696.00
2019-04-10T11:47:53.512Z,5816.00
2019-04-10T11:48:55.382Z,6408.00
2019-04-10T11:49:54.460Z,4508.00
2019-04-10T11:50:56.396Z,4480.00
2019-04-10T11:51:55.954Z,4372.00
2019-04-10T11:52:56.105Z,3896.00
2019-04-10T11:53:56.443Z,3452.00
2019-04-10T11:55:56.107Z,3376.00
2019-04-10T11:56:58.341Z,3644.00
2019-04-10T11:57:54.673Z,3548.00
2019-04-10T11:58:56.216Z,3904.00
2019-04-10T11:59:54.485Z,6248.00
2019-04-10T12:00:56.374Z,6632.00
2019-04-10T12:02:57.222Z,5224.00
2019-04-10T12:03:56.257Z,4260.00
2019-04-10T12:05:56.762Z,4072.00
2019-04-10T12:06:55.885Z,6312.00
2019-04-10T12:08:15.996Z,6340.00
2019-04-10T12:09:13.215Z,5764.00
2019-04-10T12:11:14.552Z,3824.00
2019-04-10T12:11:53.939Z,3548.00
2019-04-10T12:12:54.342Z,3584.00
2019-04-10T12:13:54.604Z,5036.00
2019-04-10T12:14:54.245Z,5332.00
2019-04-10T12:15:54.014Z,3408.00
2019-04-10T12:16:54.034Z,4252.00
2019-04-10T12:17:54.105Z,3424.00
2019-04-10T12:18:55.072Z,3020.00
2019-04-10T12:19:54.305Z,5020.00
2019-04-10T12:20:54.098Z,4140.00
2019-04-10T12:21:54.109Z,5532.00
2019-04-10T12:22:54.614Z,5868.00
2019-04-10T12:23:54.146Z,6456.00
2019-04-10T12:24:54.410Z,6912.00
2019-04-10T12:25:54.202Z,7588.00
2019-04-10T12:26:54.204Z,7804.00
2019-04-10T12:27:54.216Z,7580.00
2019-04-10T12:28:54.234Z,6824.00
2019-04-10T12:29:55.079Z,5860.00
2019-04-10T12:30:55.383Z,3624.00
2019-04-10T12:31:54.611Z,3196.00
2019-04-10T12:32:54.791Z,3072.00
2019-04-10T12:33:54.890Z,5104.00
2019-04-10T12:34:54.337Z,5112.00
2019-04-10T12:35:54.355Z,5340.00
2019-04-10T12:36:55.186Z,4700.00